Time;durP1;ratioP1;P1;durP2;ratioP2;P2;SDS_P1;SDS_P2;PMS_P1;PMS_P2;Temp;Humidity;BMP_temperature;BMP_pressure;BME280_temperature;BME280_humidity;BME280_pressure;Samples;Min_cycle;Max_cycle;Signal;HPM_P1;HPM_P2
2021/11/04 00:00:59;;;;;;;67.25;33.30;;;7.20;99.90;;;;;;5094454;28;20024;-68
2021/11/04 00:03:24;;;;;;;76.70;33.70;;;7.20;99.90;;;;;;5094618;28;20070;-68
2021/11/04 00:05:50;;;;;;;69.97;34.03;;;7.20;99.90;;;;;;5093188;28;20032;-69
2021/11/04 00:08:16;;;;;;;78.93;35.22;;;7.50;99.90;;;;;;5094573;28;20020;-68
2021/11/04 00:10:41;;;;;;;72.88;34.25;;;7.70;99.90;;;;;;5094568;28;20042;-69
2021/11/04 00:13:07;;;;;;;83.38;37.63;;;7.30;99.90;;;;;;5093947;28;20153;-68
2021/11/04 00:15:33;;;;;;;80.50;37.45;;;7.30;99.90;;;;;;5093058;28;20035;-68
2021/11/04 00:17:59;;;;;;;84.32;38.28;;;7.30;99.90;;;;;;5094122;28;20025;-68
2021/11/04 00:20:25;;;;;;;90.47;39.42;;;7.20;99.90;;;;;;5094249;28;20052;-68
2021/11/04 00:22:51;;;;;;;88.88;39.60;;;7.70;99.90;;;;;;5094383;28;20023;-68
2021/11/04 00:25:19;;;;;;;95.95;42.63;;;7.30;99.90;;;;;;5094011;28;20028;-68
2021/11/04 00:27:45;;;;;;;90.47;41.67;;;7.30;99.90;;;;;;5093105;28;20024;-68
2021/11/04 00:30:12;;;;;;;103.35;44.97;;;7.70;99.90;;;;;;5094272;28;20016;-68
2021/11/04 00:32:42;;;;;;;95.13;42.70;;;7.70;99.90;;;;;;5094256;28;20016;-68
2021/11/04 00:35:08;;;;;;;99.38;43.85;;;;;;;;;;5092838;28;20401;-68
2021/11/04 00:37:34;;;;;;;93.13;43.40;;;;;;;;;;5093958;28;20047;-68
2021/11/04 00:40:00;;;;;;;111.50;46.42;;;;;;;;;;5093905;28;20032;-68
2021/11/04 00:42:26;;;;;;;101.57;46.33;;;;;;;;;;5092704;28;20036;-68
2021/11/04 00:44:52;;;;;;;96.32;45.70;;;;;;;;;;5093549;28;20519;-68
2021/11/04 00:47:18;;;;;;;101.20;45.35;;;;;;;;;;5093851;28;20370;-68
2021/11/04 00:49:44;;;;;;;101.75;47.03;;;;;;;;;;5093840;28;20031;-68
2021/11/04 00:52:10;;;;;;;107.40;47.22;;;;;;;;;;5093812;28;20530;-68
2021/11/04 00:54:36;;;;;;;108.05;46.95;;;;;;;;;;5093783;28;20496;-68
2021/11/04 00:57:02;;;;;;;112.50;49.83;;;;;;;;;;5092247;28;20074;-68
2021/11/04 00:59:28;;;;;;;113.88;49.80;;;;;;;;;;5093718;28;20454;-68
2021/11/04 01:01:54;;;;;;;114.70;50.10;;;;;;;;;;5092525;28;20035;-68
2021/11/04 01:04:20;;;;;;;127.57;50.50;;;;;;;;;;5093612;28;20032;-68
2021/11/04 01:06:45;;;;;;;119.43;50.45;;;;;;;;;;5093671;28;20103;-68
2021/11/04 01:09:11;;;;;;;118.50;52.67;;;;;;;;;;5075329;28;20077;-68
2021/11/04 01:11:37;;;;;;;115.38;49.60;;;;;;;;;;5093635;28;20027;-68
2021/11/04 01:14:04;;;;;;;123.43;53.00;;;;;;;;;;5092075;28;20467;-68
2021/11/04 01:16:30;;;;;;;127.03;51.97;;;;;;;;;;5094120;28;20373;-68
2021/11/04 01:18:56;;;;;;;123.68;51.22;;;;;;;;;;5093569;28;20078;-68
2021/11/04 01:21:22;;;;;;;120.75;50.92;;;;;;;;;;5093549;28;20027;-68
2021/11/04 01:23:48;;;;;;;125.35;52.70;;;;;;;;;;5093395;28;20111;-68
2021/11/04 01:26:14;;;;;;;127.03;51.05;;;;;;;;;;5093512;28;20024;-68
2021/11/04 01:28:40;;;;;;;118.45;49.33;;;;;;;;;;5093453;28;20016;-68
2021/11/04 01:31:06;;;;;;;117.65;51.10;;;;;;;;;;5094878;28;20024;-68
2021/11/04 01:33:32;;;;;;;116.22;51.05;;;;;;;;;;5097303;28;20461;-68
2021/11/04 01:35:58;;;;;;;122.88;54.42;;;;;;;;;;5097256;28;20051;-68
2021/11/04 01:38:25;;;;;;;120.60;51.60;;;;;;;;;;5097223;28;20043;-68
2021/11/04 01:40:51;;;;;;;125.70;52.72;;;;;;;;;;5096007;28;20012;-68
2021/11/04 01:43:17;;;;;;;131.23;52.97;;;;;;;;;;5097088;28;20035;-68
2021/11/04 01:45:43;;;;;;;126.70;51.25;;;;;;;;;;5096997;28;20036;-68
2021/11/04 01:48:11;;;;;;;124.28;52.40;;;;;;;;;;5097038;28;20095;-68
2021/11/04 01:50:37;;;;;;;128.63;52.83;;;;;;;;;;5096938;28;20026;-68
2021/11/04 01:53:03;;;;;;;124.40;53.42;;;;;;;;;;5096945;28;20070;-68
2021/11/04 01:55:29;;;;;;;135.52;53.33;;;;;;;;;;5096848;28;20020;-68
2021/11/04 01:57:56;;;;;;;131.02;55.42;;;;;;;;;;5096787;28;20020;-68
2021/11/04 02:00:24;;;;;;;135.77;55.97;;;;;;;;;;5096760;28;20028;-68
2021/11/04 02:02:55;;;;;;;133.50;53.92;;;;;;;;;;5096720;28;20154;-68
2021/11/04 02:05:25;;;;;;;132.23;55.38;;;;;;;;;;5095079;28;20024;-68
2021/11/04 02:08:11;;;;;;;135.73;54.03;;;;;;;;;;5096619;28;20021;-68
2021/11/04 02:10:42;;;;;;;133.20;56.38;;;;;;;;;;5096509;28;20465;-68
2021/11/04 02:13:13;;;;;;;134.57;56.30;;;;;;;;;;5096256;28;20150;-68
2021/11/04 02:15:40;;;;;;;138.65;54.58;;;;;;;;;;5096457;28;20031;-68
2021/11/04 02:18:08;;;;;;;143.45;56.00;;;;;;;;;;5096401;28;20032;-68
2021/11/04 02:20:54;;;;;;;131.18;54.88;;;;;;;;;;5096638;28;20020;-68
2021/11/04 02:23:27;;;;;;;137.52;56.58;;;;;;;;;;5094951;28;20440;-68
2021/11/04 02:25:53;;;;;;;143.32;56.70;;;;;;;;;;5095167;28;20101;-68
2021/11/04 02:28:20;;;;;;;142.63;57.58;;;;;;;;;;5095948;28;20020;-68
2021/11/04 02:30:46;;;;;;;142.38;57.17;;;;;;;;;;5096207;28;20024;-68
2021/11/04 02:33:12;;;;;;;144.82;57.60;;;;;;;;;;5096121;28;20024;-68
2021/11/04 02:35:39;;;;;;;137.48;56.47;;;;;;;;;;5096114;28;20107;-68
2021/11/04 02:38:05;;;;;;;142.32;57.08;;;;;;;;;;5094906;28;20012;-68
2021/11/04 02:40:31;;;;;;;137.93;55.67;;;;;;;;;;5094558;28;20028;-68
2021/11/04 02:42:57;;;;;;;136.93;57.28;;;;;;;;;;5094932;28;20063;-68
2021/11/04 02:45:24;;;;;;;146.32;55.70;;;;;;;;;;5094215;28;20101;-68
2021/11/04 02:47:51;;;;;;;147.32;57.65;;;;;;;;;;5095805;28;20020;-68
2021/11/04 02:50:17;;;;;;;142.50;56.85;;;;;;;;;;5095784;28;20159;-68
2021/11/04 02:52:44;;;;;;;143.73;56.60;;;;;;;;;;5095755;28;20016;-68
2021/11/04 02:55:10;;;;;;;139.68;57.15;;;;;;;;;;5077384;28;20082;-68
2021/11/04 02:57:44;;;;;;;142.45;54.28;;;;;;;;;;5095656;28;20036;-68
2021/11/04 03:00:10;;;;;;;141.40;57.05;;;;;;;;;;5094458;28;20025;-68
2021/11/04 03:02:36;;;;;;;138.82;54.30;;;;;;;;;;5095546;28;20061;-68
2021/11/04 03:05:03;;;;;;;129.82;54.25;;;;;;;;;;5094286;28;20020;-68
2021/11/04 03:07:29;;;;;;;129.45;53.80;;;;;;;;;;5095419;28;20024;-68
2021/11/04 03:09:55;;;;;;;130.52;52.42;;;;;;;;;;5094437;28;20030;-68
2021/11/04 03:12:21;;;;;;;129.45;53.00;;;;;;;;;;5095398;28;20058;-68
2021/11/04 03:14:47;;;;;;;132.43;55.22;;;;;;;;;;5095348;28;20036;-68
2021/11/04 03:17:13;;;;;;;129.32;52.42;;;;;;;;;;5095311;28;20107;-68
2021/11/04 03:19:39;;;;;;;129.45;52.78;;;;;;;;;;5095230;28;20028;-68
2021/11/04 03:22:06;;;;;;;121.45;51.63;;;;;;;;;;5095214;28;20472;-68
2021/11/04 03:24:32;;;;;;;119.57;51.15;;;;;;;;;;5093898;28;20154;-68
2021/11/04 03:27:01;;;;;;;120.43;51.28;;;;;;;;;;5095090;28;20028;-68
2021/11/04 03:29:28;;;;;;;124.40;50.55;;;;;;;;;;5095078;28;20385;-68
2021/11/04 03:31:55;;;;;;;119.97;48.90;;;;;;;;;;5095054;28;20047;-68
2021/11/04 03:34:22;;;;;;;124.63;50.30;;;;;;;;;;5095022;28;20445;-68
2021/11/04 03:36:49;;;;;;;112.97;48.53;;;;;;;;;;5094930;28;20028;-68
2021/11/04 03:39:17;;;;;;;116.28;48.60;;;;;;;;;;5094894;28;20024;-68
2021/11/04 03:41:43;;;;;;;119.63;49.83;;;;;;;;;;5094845;28;20036;-68
2021/11/04 03:44:09;;;;;;;115.65;47.45;;;;;;;;;;5094232;28;20044;-68
2021/11/04 03:46:36;;;;;;;122.18;50.42;;;;;;;;;;5095044;28;20024;-68
2021/11/04 03:49:02;;;;;;;122.28;50.80;;;;;;;;;;5094713;28;20427;-68
2021/11/04 03:51:31;;;;;;;121.60;49.67;;;;;;;;;;5094662;28;20166;-68
2021/11/04 03:53:57;;;;;;;122.95;52.13;;;;;;;;;;5094111;28;20028;-68
2021/11/04 03:56:23;;;;;;;124.82;52.08;;;;;;;;;;5094587;28;20119;-68
2021/11/04 03:58:49;;;;;;;130.18;51.63;;;;;;;;;;5094517;28;20075;-68
2021/11/04 04:01:15;;;;;;;125.72;51.35;;;;;;;;;;5092962;28;20027;-68
2021/11/04 04:03:43;;;;;;;139.13;54.78;;;;;;;;;;5094373;28;20024;-68
2021/11/04 04:06:09;;;;;;;126.22;54.05;;;;;;;;;;5094393;28;20484;-68
2021/11/04 04:08:36;;;;;;;139.60;55.97;;;;;;;;;;5094323;28;20424;-68
2021/11/04 04:11:03;;;;;;;149.98;56.28;;;;;;;;;;5093141;28;20020;-68
2021/11/04 04:13:29;;;;;;;142.90;56.25;;;;;;;;;;5094293;28;20419;-68
2021/11/04 04:15:55;;;;;;;142.73;54.90;;;;;;;;;;5094268;28;20054;-68
2021/11/04 04:18:21;;;;;;;153.65;57.83;;;;;;;;;;5094227;28;20066;-68
2021/11/04 04:20:47;;;;;;;152.40;55.42;;;;;;;;;;5093448;28;20028;-68
2021/11/04 04:23:13;;;;;;;151.30;57.20;;;;;;;;;;5094176;28;20099;-68
2021/11/04 04:25:39;;;;;;;147.18;56.15;;;;;;;;;;5092878;28;20020;-68
2021/11/04 04:28:05;;;;;;;151.18;57.30;;;;;;;;;;5092912;28;20533;-68
2021/11/04 04:30:31;;;;;;;157.52;57.80;;;;;;;;;;5094031;28;20492;-68
2021/11/04 04:32:58;;;;;;;151.60;57.17;;;;;;;;;;5093990;28;20102;-68
2021/11/04 04:35:24;;;;;;;139.20;54.40;;;;;;;;;;5093979;28;20431;-68
2021/11/04 04:37:50;;;;;;;139.95;54.10;;;;;;;;;;5093896;28;20103;-68
2021/11/04 04:40:16;;;;;;;135.20;53.33;;;;;;;;;;5093939;28;20051;-68
2021/11/04 04:42:42;;;;;;;137.48;53.17;;;;;;;;;;5094156;28;20370;-68
2021/11/04 04:45:08;;;;;;;137.63;54.35;;;;;;;;;;5093354;28;20050;-68
2021/11/04 04:47:34;;;;;;;134.82;51.78;;;;;;;;;;5092664;28;20023;-68
2021/11/04 04:50:00;;;;;;;130.25;51.75;;;;;;;;;;5093861;28;20103;-68
2021/11/04 04:52:29;;;;;;;136.40;53.22;;;;;;;;;;5093811;28;20099;-68
2021/11/04 04:54:56;;;;;;;136.43;53.55;;;;;;;;;;5093729;28;20051;-68
2021/11/04 04:57:23;;;;;;;140.65;56.80;;;;;;;;;;5093753;28;20031;-68
2021/11/04 04:59:50;;;;;;;143.73;54.67;;;;;;;;;;5093737;28;20038;-68
2021/11/04 05:02:16;;;;;;;139.45;53.92;;;;;;;;;;5093730;28;20386;-68
2021/11/04 05:04:42;;;;;;;142.95;53.53;;;;;;;;;;5093665;28;20074;-68
2021/11/04 05:07:08;;;;;;;143.45;54.33;;;;;;;;;;5096952;28;20024;-68
2021/11/04 05:09:34;;;;;;;146.48;53.75;;;;;;;;;;5097782;28;20437;-68
2021/11/04 05:12:00;;;;;;;140.52;52.58;;;;;;;;;;5079375;28;20031;-68
2021/11/04 05:14:26;;;;;;;137.95;53.40;;;;;;;;;;5096705;28;20042;-68
2021/11/04 05:16:52;;;;;;;151.40;53.95;;;;;;;;;;5097631;28;20099;-68
2021/11/04 05:19:18;;;;;;;142.90;54.80;;;;;;;;;;5097531;28;20119;-68
2021/11/04 05:21:44;;;;;;;138.35;52.10;;;;;;;;;;5097328;28;20107;-68
2021/11/04 05:24:10;;;;;;;148.25;53.88;;;;;;;;;;5097419;28;20036;-68
2021/11/04 05:26:36;;;;;;;148.77;54.72;;;;;;;;;;5097425;28;20039;-68
2021/11/04 05:29:02;;;;;;;144.75;52.40;;;;;;;;;;5097146;28;20020;-68
2021/11/04 05:31:29;;;;;;;145.95;52.10;;;;;;;;;;5097299;28;20023;-68
2021/11/04 05:33:55;;;;;;;154.57;53.83;;;;;;;;;;5097293;28;20544;-68
2021/11/04 05:36:21;;;;;;;145.40;52.13;;;;;;;;;;5097258;28;20051;-68
2021/11/04 05:38:47;;;;;;;144.18;50.40;;;;;;;;;;5097212;28;20055;-68
2021/11/04 05:41:13;;;;;;;149.10;52.10;;;;;;;;;;5097442;28;20028;-68
2021/11/04 05:43:39;;;;;;;134.40;48.83;;;;;;;;;;5095269;28;20044;-68
2021/11/04 05:46:05;;;;;;;141.05;49.85;;;;;;;;;;5095531;28;20097;-68
2021/11/04 05:48:31;;;;;;;133.35;48.67;;;;;;;;;;5097012;28;20044;-68
2021/11/04 05:50:57;;;;;;;135.98;47.80;;;;;;;;;;5096951;28;20106;-68
2021/11/04 05:53:23;;;;;;;130.77;45.95;;;;;;;;;;5096972;28;20103;-68
2021/11/04 05:55:50;;;;;;;134.65;48.20;;;;;;;;;;5095316;28;20035;-68
2021/11/04 05:58:16;;;;;;;129.98;46.83;;;;;;;;;;5096858;28;20028;-68
2021/11/04 06:00:42;;;;;;;137.27;45.92;;;;;;;;;;5095583;28;20070;-68
2021/11/04 06:03:08;;;;;;;138.15;47.50;;;;;;;;;;5096707;28;20032;-68
2021/11/04 06:05:34;;;;;;;137.88;46.50;;;;;;;;;;5096624;28;20040;-68
2021/11/04 06:08:00;;;;;;;140.82;47.60;;;;;;;;;;5095641;28;20480;-68
2021/11/04 06:10:26;;;;;;;140.48;47.65;;;;;;;;;;5096727;28;20058;-68
2021/11/04 06:12:52;;;;;;;143.38;47.42;;;;;;;;;;5096809;28;20030;-68
2021/11/04 06:15:18;;;;;;;139.45;47.80;;;;;;;;;;5094923;28;20030;-68
2021/11/04 06:17:44;;;;;;;130.95;45.60;;;;;;;;;;5095965;28;20050;-68
2021/11/04 06:20:10;;;;;;;136.02;46.55;;;;;;;;;;5096404;28;20381;-68
2021/11/04 06:22:36;;;;;;;137.95;47.97;;;;;;;;;;5096360;28;20036;-68
2021/11/04 06:25:03;;;;;;;140.73;49.17;;;;;;;;;;5096211;28;20028;-68
2021/11/04 06:27:29;;;;;;;136.27;48.08;;;;;;;;;;5096240;28;20020;-68
2021/11/04 06:29:55;;;;;;;134.98;49.38;;;;;;;;;;5096227;28;20028;-68
2021/11/04 06:32:21;;;;;;;132.77;47.53;;;;;;;;;;5096193;28;20020;-68
2021/11/04 06:34:48;;;;;;;141.88;48.25;;;;;;;;;;5096117;28;20031;-68
2021/11/04 06:37:14;;;;;;;141.18;48.83;;;;;;;;;;5096023;28;20063;-68
2021/11/04 06:39:40;;;;;;;141.93;48.88;;;;;;;;;;5096039;28;20081;-68
2021/11/04 06:42:06;;;;;;;147.10;48.40;;;;;;;;;;5096149;28;20028;-68
2021/11/04 06:44:32;;;;;;;143.55;48.78;;;;;;;;;;5095407;28;20040;-68
2021/11/04 06:47:00;;;;;;;156.15;50.78;;;;;;;;;;5095874;28;20035;-68
2021/11/04 06:49:27;;;;;;;145.60;47.70;;;;;;;;;;5095787;28;20549;-68
2021/11/04 06:51:55;;;;;;;142.45;48.75;;;;;;;;;;5095754;28;20027;-68
2021/11/04 06:54:23;;;;;;;154.25;48.75;;;;;;;;;;5095692;28;20034;-68
2021/11/04 06:56:50;;;;;;;146.35;48.75;;;;;;;;;;5096005;28;20035;-68
2021/11/04 06:59:18;;;;;;;140.98;48.13;;;;;;;;;;5094364;28;20543;-68
2021/11/04 07:01:46;;;;;;;147.73;49.30;;;;;;;;;;5095478;28;20020;-68
2021/11/04 07:04:18;;;;;;;142.55;49.70;;;;;;;;;;5093837;28;20496;-68
2021/11/04 07:06:46;;;;;;;140.93;46.97;;;;;;;;;;5095507;28;20020;-68
2021/11/04 07:09:12;;;;;;;129.38;45.47;;;;;;;;;;5093200;28;20021;-68
2021/11/04 07:11:39;;;;;;;139.10;48.60;;;;;;;;;;5094500;28;20090;-68
2021/11/04 07:14:05;;;;;;;144.15;49.28;;;;;;;;;;5095212;28;20032;-68
2021/11/04 07:16:32;;;;;;;137.93;48.80;;;;;;;;;;5093631;28;20349;-68
2021/11/04 07:18:59;;;;;;;140.52;47.85;;;;;;;;;;5094571;28;20047;-68
2021/11/04 07:21:43;;;;;;;134.77;48.15;;;;;;;;;;5093429;28;20026;-68
2021/11/04 07:24:13;;;;;;;124.60;44.10;;;;;;;;;;5094496;28;20431;-68
2021/11/04 07:26:44;;;;;;;111.30;42.25;;;;;;;;;;5095053;28;20056;-68
2021/11/04 07:29:11;;;;;;;117.18;42.63;;;;;;;;;;5094109;28;20115;-69
2021/11/04 07:31:41;;;;;;;120.53;42.63;;;;;;;;;;5093380;28;20089;-68
2021/11/04 07:34:08;;;;;;;117.47;44.03;;;;;;;;;;5094835;28;20115;-68
2021/11/04 07:36:35;;;;;;;109.07;41.47;;;;;;;;;;5093339;28;20062;-68
2021/11/04 07:39:03;;;;;;;107.72;39.33;;;;;;;;;;5093536;28;20028;-68
2021/11/04 07:41:30;;;;;;;104.10;40.05;;;;;;;;;;5094680;28;20074;-68
2021/11/04 07:43:57;;;;;;;105.95;40.00;;;;;;;;;;5094242;28;20040;-68
2021/11/04 07:46:23;;;;;;;97.13;39.00;;;;;;;;;;5094584;28;20034;-69
2021/11/04 07:48:49;;;;;;;95.82;37.63;;;;;;;;;;5093502;28;20449;-68
2021/11/04 07:51:15;;;;;;;101.28;38.90;;;;;;;;;;5094069;28;20020;-69
2021/11/04 07:53:42;;;;;;;102.97;38.85;;;;;;;;;;5094365;28;20024;-68
2021/11/04 07:56:09;;;;;;;105.93;40.42;;;;;;;;;;5094275;28;20016;-69
2021/11/04 07:58:35;;;;;;;100.28;38.45;;;;;;;;;;5096365;28;20347;-68
2021/11/04 08:01:01;;;;;;;102.05;38.08;;;;;;;;;;5097166;28;20030;-68
2021/11/04 08:03:27;;;;;;;101.10;39.20;;;;;;;;;;5096543;28;20448;-68
2021/11/04 08:05:53;;;;;;;99.30;38.92;;;;;;;;;;5094282;28;20032;-68
2021/11/04 08:08:19;;;;;;;92.90;36.25;;;;;;;;;;5093046;28;20017;-68
2021/11/04 08:10:45;;;;;;;92.20;37.60;;;;;;;;;;5094095;28;20376;-68
2021/11/04 08:13:13;;;;;;;92.38;37.63;;;;;;;;;;5094121;28;20116;-68
2021/11/04 08:15:40;;;;;;;97.53;36.83;;;;;;;;;;5093990;28;20051;-68
2021/11/04 08:18:07;;;;;;;90.95;38.08;;;;;;;;;;5093893;28;20026;-68
2021/11/04 08:20:33;;;;;;;97.18;37.35;;;;;;;;;;5094252;28;20028;-68
2021/11/04 08:23:01;;;;;;;94.90;37.08;;;;;;;;;;5093962;28;20020;-68
2021/11/04 08:25:27;;;;;;;84.60;35.47;;;;;;;;;;5093806;28;20035;-68
2021/11/04 08:27:53;;;;;;;85.13;34.40;;;;;;;;;;5093787;28;20028;-68
2021/11/04 08:30:21;;;;;;;82.88;34.35;;;;;;;;;;5093874;28;20369;-68
2021/11/04 08:32:47;;;;;;;78.57;32.15;;;;;;;;;;5093720;28;20546;-68
2021/11/04 08:35:13;;;;;;;81.97;35.17;;;;;;;;;;5093707;28;20063;-68
2021/11/04 08:37:39;;;;;;;89.10;33.90;;;;;;;;;;5093758;28;20381;-68
2021/11/04 08:40:06;;;;;;;84.35;33.45;;;;;;;;;;5093579;28;20461;-69
2021/11/04 08:42:32;;;;;;;81.65;34.30;;;;;;;;;;5093719;28;20470;-68
2021/11/04 08:44:59;;;;;;;75.05;31.75;;;;;;;;;;5093028;28;20326;-69
2021/11/04 08:47:25;;;;;;;81.82;33.08;;;;;;;;;;5092971;28;20069;-68
2021/11/04 08:49:51;;;;;;;76.80;31.63;;;;;;;;;;5092043;28;20070;-69
2021/11/04 08:52:17;;;;;;;79.93;32.08;;;;;;;;;;5093461;28;20032;-68
2021/11/04 08:54:44;;;;;;;73.30;31.58;;;;;;;;;;5094528;28;20049;-70
2021/11/04 08:57:13;;;;;;;80.35;31.42;;;;;;;;;;5092273;28;20032;-68
2021/11/04 08:59:41;;;;;;;72.72;30.35;;;;;;;;;;5091674;28;20047;-69
2021/11/04 09:02:10;;;;;;;78.80;31.60;;;;;;;;;;5091147;28;20393;-69
2021/11/04 09:04:38;;;;;;;74.55;32.38;;;;;;;;;;5092945;28;20032;-69
2021/11/04 09:07:04;;;;;;;80.32;32.67;;;;;;;;;;5093309;28;20017;-68
2021/11/04 09:09:30;;;;;;;79.72;31.92;;;;;;;;;;5093091;28;20354;-68
2021/11/04 09:11:56;;;;;;;70.93;30.80;;;;;;;;;;5092988;28;20039;-68
2021/11/04 09:14:22;;;;;;;69.82;29.02;;;;;;;;;;5093065;28;20035;-68
2021/11/04 09:16:48;;;;;;;75.95;32.35;;;;;;;;;;5093289;28;20024;-69
2021/11/04 09:19:14;;;;;;;77.00;31.67;;;;;;;;;;5093364;28;20028;-68
2021/11/04 09:21:40;;;;;;;74.35;30.52;;;;;;;;;;5092827;28;20381;-69
2021/11/04 09:24:06;;;;;;;68.65;27.95;;;;;;;;;;5093216;28;20024;-69
2021/11/04 09:26:33;;;;;;;78.88;30.15;;;;;;;;;;5092766;28;20088;-69
2021/11/04 09:28:59;;;;;;;72.05;29.55;;;;;;;;;;5092841;28;20048;-68
2021/11/04 09:31:25;;;;;;;71.00;29.77;;;;;;;;;;5092725;28;20066;-69
2021/11/04 09:33:53;;;;;;;76.63;32.03;;;;;;;;;;5093157;28;20016;-69
2021/11/04 09:36:23;;;;;;;81.20;31.40;;;;;;;;;;5092046;28;20488;-69
2021/11/04 09:38:49;;;;;;;73.05;29.70;;;;;;;;;;5093068;28;20029;-69
2021/11/04 09:41:15;;;;;;;69.72;28.98;;;;;;;;;;5093176;28;20377;-69
2021/11/04 09:43:41;;;;;;;65.65;27.52;;;;;;;;;;5092021;28;20531;-69
2021/11/04 09:46:07;;;;;;;68.90;28.85;;;;;;;;;;5093025;28;20028;-69
2021/11/04 09:48:34;;;;;;;64.40;27.58;;;;;;;;;;5093172;28;20028;-69
2021/11/04 09:51:00;;;;;;;67.80;27.50;;;;;;;;;;5091547;28;20040;-69
2021/11/04 09:53:26;;;;;;;68.60;28.73;;;;;;;;;;5095332;28;20031;-69
2021/11/04 09:55:52;;;;;;;67.72;28.65;;;;;;;;;;5096508;28;20028;-69
2021/11/04 09:58:18;;;;;;;68.28;28.80;;;;;;;;;;5096593;28;20035;-69
2021/11/04 10:00:44;;;;;;;66.60;28.50;;;;;;;;;;5096838;28;20439;-69
2021/11/04 10:03:12;;;;;;;68.50;28.83;;;;;;;;;;5096040;28;20095;-69
2021/11/04 10:05:46;;;;;;;63.38;28.40;;;;;;;;;;5096320;28;20032;-69
2021/11/04 10:08:14;;;;;;;73.00;31.63;;;;;;;;;;5096395;28;20020;-69
2021/11/04 10:10:41;;;;;;;66.22;29.48;;;;;;;;;;5078595;28;20016;-69
2021/11/04 10:13:08;;;;;;;68.65;29.08;;;;;;;;;;5095671;28;20022;-69
2021/11/04 10:15:35;;;;;;;68.20;30.65;;;;;;;;;;5095898;28;20488;-69
2021/11/04 10:18:21;;;;;;;61.53;28.08;;;;;;;;;;5096287;28;20028;-69
2021/11/04 10:21:04;;;;;;;60.50;27.00;;;;;;;;;;5095918;28;20030;-69
2021/11/04 10:23:45;;;;;;;58.78;26.08;;;;;;;;;;5095803;28;20119;-69
2021/11/04 10:26:14;;;;;;;55.15;25.55;;;;;;;;;;5095667;28;20114;-69
2021/11/04 10:28:41;;;;;;;56.83;25.23;;;;;;;;;;5096012;28;20116;-69
2021/11/04 10:31:09;;;;;;;51.83;24.42;;;;;;;;;;5095907;28;20032;-69
2021/11/04 10:33:36;;;;;;;59.00;25.60;;;;;;;;;;5095377;28;20023;-69
2021/11/04 10:36:04;;;;;;;53.28;23.42;;;;;;;;;;5095955;28;20492;-69
2021/11/04 10:38:32;;;;;;;50.08;22.95;;;;;;;;;;5095844;28;20024;-69
2021/11/04 10:40:58;;;;;;;53.65;23.77;;;;;;;;;;5095018;28;20356;-70
2021/11/04 10:43:24;;;;;;;58.78;26.52;;;;;;;;;;5095262;28;20016;-70
2021/11/04 10:46:12;;;;;;;57.83;23.63;;;;;;;;;;5095654;28;20097;-70
2021/11/04 10:48:38;;;;;;;55.50;24.63;;;;;;;;;;5095187;28;20350;-69
2021/11/04 10:51:04;;;;;;;58.63;25.92;;;;;;;;;;5095720;28;20101;-69
2021/11/04 10:53:30;;;;;;;54.45;25.00;;;;;;;;;;5095222;28;20028;-70
2021/11/04 10:56:12;;;;;;;55.35;25.58;;;;;;;;;;5095491;28;20028;-70
2021/11/04 10:58:38;;;;;;;55.78;24.60;;;;;;;;;;5093783;28;20438;-70
2021/11/04 11:01:03;;;;;;;53.95;25.40;;;;;;;;;;5093834;28;20039;-69
2021/11/04 11:03:30;;;;;;;53.60;24.63;;;;;;;;;;5095051;28;20074;-70
2021/11/04 11:05:58;;;;;;;51.97;24.55;;;;;;;;;;5095117;28;20060;-70
2021/11/04 11:08:25;;;;;;;58.97;27.23;;;;;;;;;;5095202;28;20020;-70
2021/11/04 11:10:51;;;;;;;58.88;27.98;;;;;;;;;;5094648;28;20028;-69
2021/11/04 11:13:17;;;;;;;56.97;30.00;;;;;;;;;;5095070;28;20442;-70
2021/11/04 11:15:45;;;;;;;52.78;26.02;;;;;;;;;;5094735;28;20024;-70
2021/11/04 11:18:11;;;;;;;49.60;24.45;;;;;;;;;;5095029;28;20020;-70
2021/11/04 11:20:41;;;;;;;51.42;25.15;;;;;;;;;;5094616;28;20040;-70
2021/11/04 11:23:07;;;;;;;50.17;25.05;;;;;;;;;;5095214;28;20477;-69
2021/11/04 11:25:34;;;;;;;49.65;24.85;;;;;;;;;;5094874;28;20024;-70
2021/11/04 11:28:00;;;;;;;52.22;27.30;;;;;;;;;;5094879;28;20084;-70
2021/11/04 11:30:26;;;;;;;54.80;28.00;;;;;;;;;;5094581;28;20032;-70
2021/11/04 11:33:12;;;;;;;50.05;26.20;;;;;;;;;;5094917;28;20310;-70
2021/11/04 11:35:39;;;;;;;57.25;28.90;;;;;;;;;;5094340;28;20111;-70
2021/11/04 11:38:07;;;;;;;52.28;26.92;;;;;;;;;;5094641;28;20022;-70
2021/11/04 11:40:34;;;;;;;54.03;28.70;;;;;;;;;;5094330;28;20024;-70
2021/11/04 11:43:15;;;;;;;62.67;28.80;;;;;;;;;;5094588;28;20115;-70
2021/11/04 11:45:42;;;;;;;53.88;26.20;;;;;;;;;;5092613;28;20051;-70
2021/11/04 11:48:24;;;;;;;53.95;26.58;;;;;;;;;;5093273;28;20027;-70
2021/11/04 11:50:51;;;;;;;56.47;27.25;;;;;;;;;;5093895;28;20024;-70
2021/11/04 11:53:26;;;;;;;51.33;26.15;;;;;;;;;;5092715;28;20115;-69
2021/11/04 11:55:54;;;;;;;49.10;24.88;;;;;;;;;;5093051;28;20032;-70
2021/11/04 11:58:37;;;;;;;46.75;24.40;;;;;;;;;;5094215;28;20027;-69
2021/11/04 12:01:04;;;;;;;46.85;25.10;;;;;;;;;;5094309;28;20378;-69
2021/11/04 12:06:15;;;;;;;49.95;24.65;;;;;;;;;;5114117;27;1192116;-69
2021/11/04 12:08:46;;;;;;;50.43;24.97;;;;;;;;;;5132100;27;20083;-69
2021/11/04 12:11:32;;;;;;;49.70;25.88;;;;;;;;;;5139934;27;20268;-70
2021/11/04 12:13:58;;;;;;;47.30;24.95;;;;;;;;;;5152316;27;20023;-70
2021/11/04 12:16:24;;;;;;;52.10;24.67;;;;;;;;;;5151981;27;20445;-70
2021/11/04 12:18:53;;;;;;;49.40;23.80;;;;;;;;;;5152127;27;20079;-69
2021/11/04 12:21:22;;;;;;;53.17;25.83;;;;;;;;;;5142825;27;20023;-69
2021/11/04 12:23:48;;;;;;;52.05;29.02;;;;;;;;;;5131301;28;20031;-69
2021/11/04 12:26:14;;;;;;;45.78;24.08;;;;;;;;;;5131427;28;20030;-69
2021/11/04 12:28:44;;;;;;;47.63;24.85;;;;;;;;;;5131432;27;20098;-70
2021/11/04 12:31:12;;;;;;;48.67;25.80;;;;;;;;;;5146966;27;20018;-70
2021/11/04 12:33:38;;;;;;;46.97;24.50;;;;;;;;;;5152100;27;20476;-69
2021/11/04 12:36:04;;;;;;;54.30;25.98;;;;;;;;;;5152162;27;20058;-70
2021/11/04 12:38:38;;;;;;;45.67;23.60;;;;;;;;;;5151756;27;20038;-69
2021/11/04 12:41:05;;;;;;;46.50;23.80;;;;;;;;;;5136942;27;20023;-69
2021/11/04 12:43:32;;;;;;;52.20;25.17;;;;;;;;;;5131262;27;20457;-69
2021/11/04 12:46:12;;;;;;;44.88;24.02;;;;;;;;;;5131153;27;20425;-69
2021/11/04 12:48:54;;;;;;;46.50;25.23;;;;;;;;;;5131185;27;20019;-69
2021/11/04 12:51:20;;;;;;;47.97;24.77;;;;;;;;;;5147491;27;20039;-69
2021/11/04 12:53:50;;;;;;;56.00;26.35;;;;;;;;;;5151717;27;20098;-69
2021/11/04 12:56:16;;;;;;;53.95;25.88;;;;;;;;;;5151691;27;20477;-69
2021/11/04 12:58:42;;;;;;;49.97;25.90;;;;;;;;;;5149868;27;20027;-69
2021/11/04 13:01:08;;;;;;;51.90;26.33;;;;;;;;;;5151620;27;20099;-69
2021/11/04 13:03:35;;;;;;;50.70;26.42;;;;;;;;;;5151599;27;20031;-69
2021/11/04 13:06:02;;;;;;;46.80;24.30;;;;;;;;;;5151093;27;20039;-69
2021/11/04 13:08:31;;;;;;;48.70;24.92;;;;;;;;;;5146825;27;20020;-69
2021/11/04 13:11:01;;;;;;;49.47;25.75;;;;;;;;;;5129863;27;20028;-69
2021/11/04 13:13:27;;;;;;;48.90;24.67;;;;;;;;;;5129540;27;20054;-69
2021/11/04 13:15:53;;;;;;;49.17;23.73;;;;;;;;;;5125738;27;20019;-69
2021/11/04 13:18:19;;;;;;;42.72;23.98;;;;;;;;;;5119638;27;20388;-69
2021/11/04 13:20:48;;;;;;;46.65;24.25;;;;;;;;;;5137481;27;20023;-69
2021/11/04 13:23:16;;;;;;;52.70;26.33;;;;;;;;;;5137387;27;20023;-69
2021/11/04 13:25:44;;;;;;;45.97;24.55;;;;;;;;;;5136693;27;20034;-69
2021/11/04 13:28:15;;;;;;;44.10;23.55;;;;;;;;;;5122999;27;20126;-69
2021/11/04 13:30:43;;;;;;;49.30;24.63;;;;;;;;;;5115027;28;20047;-69
2021/11/04 13:33:10;;;;;;;53.60;26.77;;;;;;;;;;5115814;28;20106;-69
2021/11/04 13:35:38;;;;;;;44.10;23.08;;;;;;;;;;5116580;28;20028;-69
2021/11/04 13:38:22;;;;;;;43.60;22.88;;;;;;;;;;5115866;28;20020;-69
2021/11/04 13:40:50;;;;;;;39.47;23.42;;;;;;;;;;5115415;28;20050;-69
2021/11/04 13:43:19;;;;;;;42.22;22.42;;;;;;;;;;5116051;28;20058;-69
2021/11/04 13:45:45;;;;;;;39.88;21.33;;;;;;;;;;5116258;28;20476;-69
2021/11/04 13:48:12;;;;;;;37.60;21.50;;;;;;;;;;5115972;27;20027;-67
2021/11/04 13:50:41;;;;;;;36.03;20.60;;;;;;;;;;5136720;27;20016;-67
2021/11/04 13:53:16;;;;;;;35.58;20.17;;;;;;;;;;5135575;27;20087;-67
2021/11/04 13:55:42;;;;;;;35.42;20.58;;;;;;;;;;5136786;27;20023;-67
2021/11/04 13:58:08;;;;;;;35.55;19.45;;;;;;;;;;5116574;27;20031;-67
2021/11/04 14:00:34;;;;;;;35.10;19.42;;;;;;;;;;5115931;27;20503;-67
2021/11/04 14:03:02;;;;;;;29.55;18.50;;;;;;;;;;5115895;28;20024;-67
2021/11/04 14:05:48;;;;;;;31.50;17.73;;;;;;;;;;5115616;28;20136;-67
2021/11/04 14:08:15;;;;;;;30.50;16.88;;;;;;;;;;5115664;28;20100;-67
2021/11/04 14:10:41;;;;;;;30.65;17.60;;;;;;;;;;5135342;27;20023;-67